createdAt,value
2018-01-15T00:00:34.840Z,28.27
2018-01-15T00:03:03.213Z,28.70
2018-01-15T00:05:31.560Z,24.97
2018-01-15T00:07:59.911Z,24.97
2018-01-15T00:10:28.279Z,25.03
2018-01-15T00:12:56.870Z,24.60
2018-01-15T00:15:25.211Z,25.87
2018-01-15T00:17:53.554Z,24.73
2018-01-15T00:20:21.928Z,23.80
2018-01-15T00:22:50.277Z,26.07
2018-01-15T00:25:18.628Z,22.43
2018-01-15T00:27:47.000Z,25.30
2018-01-15T00:30:16.124Z,22.10
2018-01-15T00:32:44.481Z,25.60
2018-01-15T00:35:12.926Z,23.97
2018-01-15T00:37:41.294Z,23.27
2018-01-15T00:40:09.673Z,22.07
2018-01-15T00:42:38.028Z,20.93
2018-01-15T00:45:06.390Z,22.97
2018-01-15T00:47:34.743Z,22.53
2018-01-15T00:50:03.927Z,21.83
2018-01-15T00:52:32.274Z,25.87
2018-01-15T00:55:00.626Z,21.33
2018-01-15T00:57:28.975Z,24.37
2018-01-15T00:59:58.109Z,23.30
2018-01-15T01:02:26.479Z,26.93
2018-01-15T01:04:54.930Z,23.73
2018-01-15T01:07:24.155Z,23.53
2018-01-15T01:09:52.494Z,23.77
2018-01-15T01:12:20.928Z,23.13
2018-01-15T01:14:49.303Z,24.33
2018-01-15T01:17:17.656Z,23.00
2018-01-15T01:19:46.771Z,25.83
2018-01-15T01:22:15.268Z,24.47
2018-01-15T01:24:43.629Z,26.40
2018-01-15T01:27:11.980Z,27.53
2018-01-15T01:29:40.347Z,27.73
2018-01-15T01:32:08.695Z,27.90
2018-01-15T01:34:37.051Z,25.20
2018-01-15T01:37:05.435Z,28.70
2018-01-15T01:39:33.816Z,24.60
2018-01-15T01:42:02.162Z,28.57
2018-01-15T01:44:31.273Z,31.03
2018-01-15T01:46:59.643Z,28.57
2018-01-15T01:49:27.990Z,29.33
2018-01-15T01:51:56.332Z,26.63
2018-01-15T01:54:24.682Z,27.17
2018-01-15T01:56:53.023Z,27.33
2018-01-15T01:59:21.375Z,27.13
2018-01-15T02:01:49.719Z,28.07
2018-01-15T02:04:18.131Z,31.80
2018-01-15T02:06:46.467Z,29.37
2018-01-15T02:09:15.586Z,26.90
2018-01-15T02:11:43.927Z,24.30
2018-01-15T02:14:13.130Z,26.93
2018-01-15T02:16:41.474Z,25.10
2018-01-15T02:19:09.820Z,26.20
2018-01-15T02:21:38.221Z,24.20
2018-01-15T02:24:06.554Z,24.83
2018-01-15T02:26:35.673Z,25.53
2018-01-15T02:29:04.064Z,24.60
2018-01-15T02:31:32.484Z,23.53
2018-01-15T02:34:00.933Z,23.77
2018-01-15T02:36:29.294Z,24.60
2018-01-15T02:38:57.689Z,22.73
2018-01-15T02:41:26.083Z,24.00
2018-01-15T02:43:54.418Z,24.53
2018-01-15T02:46:22.776Z,22.70
2018-01-15T02:48:51.931Z,26.67
2018-01-15T02:51:20.296Z,26.80
2018-01-15T02:53:48.640Z,24.70
2018-01-15T02:56:17.780Z,24.97
2018-01-15T02:58:46.145Z,23.57
2018-01-15T03:01:14.479Z,23.87
2018-01-15T03:03:42.837Z,27.17
2018-01-15T03:06:11.180Z,22.47
2018-01-15T03:11:14.263Z,21.40
2018-01-15T03:13:43.383Z,19.13
2018-01-15T03:16:11.758Z,20.20
2018-01-15T03:18:40.135Z,19.60
2018-01-15T03:21:08.518Z,19.87
2018-01-15T03:23:36.869Z,20.97
2018-01-15T03:26:05.995Z,21.13
2018-01-15T03:28:34.352Z,17.63
2018-01-15T03:31:03.589Z,16.37
2018-01-15T03:33:31.939Z,18.40
2018-01-15T03:36:00.279Z,17.43
2018-01-15T03:38:28.721Z,17.90
2018-01-15T03:40:57.063Z,17.47
2018-01-15T03:43:26.222Z,18.30
2018-01-15T03:45:54.581Z,19.83
2018-01-15T03:48:22.948Z,18.20
2018-01-15T03:50:51.344Z,14.90
2018-01-15T03:53:19.739Z,17.23
2018-01-15T03:55:48.104Z,18.50
2018-01-15T03:58:17.491Z,17.50
2018-01-15T04:00:45.831Z,17.17
2018-01-15T04:03:14.946Z,18.20
2018-01-15T04:05:43.351Z,15.53
2018-01-15T04:08:11.698Z,17.60
2018-01-15T04:10:40.045Z,16.63
2018-01-15T04:13:08.409Z,17.17
2018-01-15T04:15:36.759Z,16.40
2018-01-15T04:18:05.252Z,20.97
2018-01-15T04:20:33.601Z,18.20
2018-01-15T04:23:02.005Z,16.00
2018-01-15T04:25:30.351Z,16.77
2018-01-15T04:27:59.455Z,17.17
2018-01-15T04:30:28.644Z,16.63
2018-01-15T04:32:57.786Z,17.57
2018-01-15T04:35:26.146Z,18.03
2018-01-15T04:37:54.531Z,17.07
2018-01-15T04:40:22.887Z,17.93
2018-01-15T04:42:51.222Z,17.10
2018-01-15T04:45:19.566Z,19.20
2018-01-15T04:47:47.950Z,18.70
2018-01-15T04:50:16.287Z,18.20
2018-01-15T04:52:44.704Z,16.17
2018-01-15T04:55:13.206Z,16.00
2018-01-15T04:57:41.565Z,17.60
2018-01-15T05:00:10.003Z,15.67
2018-01-15T05:02:38.335Z,18.43
2018-01-15T05:05:06.691Z,16.30
2018-01-15T05:07:35.033Z,18.70
2018-01-15T05:10:03.417Z,16.57
2018-01-15T05:12:31.750Z,18.33
2018-01-15T05:15:00.246Z,17.17
2018-01-15T05:17:28.594Z,19.43
2018-01-15T05:19:56.913Z,16.57
2018-01-15T05:22:25.268Z,18.40
2018-01-15T05:24:53.634Z,16.90
2018-01-15T05:27:22.011Z,16.73
2018-01-15T05:29:50.357Z,16.67
2018-01-15T05:32:19.465Z,15.23
2018-01-15T05:34:48.605Z,16.47
2018-01-15T05:37:16.982Z,16.80
2018-01-15T05:39:45.327Z,15.43
2018-01-15T05:42:13.670Z,16.60
2018-01-15T05:44:42.111Z,14.10
2018-01-15T05:47:10.447Z,15.33
2018-01-15T05:49:38.847Z,18.97
2018-01-15T05:52:07.196Z,16.97
2018-01-15T05:54:35.528Z,14.77
2018-01-15T05:57:03.929Z,17.57
2018-01-15T05:59:32.272Z,15.73
2018-01-15T06:02:00.631Z,17.93
2018-01-15T06:04:29.046Z,14.57
2018-01-15T06:06:57.391Z,19.37
2018-01-15T06:09:25.795Z,16.40
2018-01-15T06:11:54.176Z,16.80
2018-01-15T06:14:22.718Z,14.90
2018-01-15T06:16:51.135Z,17.17
2018-01-15T06:19:19.492Z,16.83
2018-01-15T06:21:48.593Z,16.33
2018-01-15T06:24:17.755Z,17.63
2018-01-15T06:26:46.132Z,20.07
2018-01-15T06:29:14.471Z,18.10
2018-01-15T06:31:42.841Z,17.60
2018-01-15T06:34:11.175Z,18.90
2018-01-15T06:36:39.542Z,19.27
2018-01-15T06:39:07.914Z,18.67
2018-01-15T06:41:36.267Z,17.43
2018-01-15T06:44:04.602Z,19.23
2018-01-15T06:46:33.728Z,18.57
2018-01-15T06:49:02.070Z,21.20
2018-01-15T06:51:30.446Z,17.73
2018-01-15T06:53:58.854Z,18.10
2018-01-15T06:56:27.222Z,18.13
2018-01-15T06:58:56.320Z,18.67
2018-01-15T07:01:24.720Z,17.33
2018-01-15T07:03:53.058Z,18.03
2018-01-15T07:06:21.410Z,17.33
2018-01-15T07:08:49.740Z,18.30
2018-01-15T07:11:18.247Z,16.17
2018-01-15T07:13:46.637Z,18.53
2018-01-15T07:16:14.966Z,15.50
2018-01-15T07:18:43.330Z,17.80
2018-01-15T07:21:11.675Z,16.83
2018-01-15T07:23:40.026Z,18.50
2018-01-15T07:26:08.364Z,16.20
2018-01-15T07:28:36.738Z,18.70
2018-01-15T07:31:05.092Z,17.10
2018-01-15T07:33:33.424Z,20.17
2018-01-15T07:36:02.606Z,19.97
2018-01-15T07:38:30.946Z,17.10
2018-01-15T07:40:59.300Z,18.20
2018-01-15T07:43:27.630Z,19.03
2018-01-15T07:45:56.000Z,17.73
2018-01-15T07:48:24.352Z,19.77
2018-01-15T07:50:52.683Z,19.43
2018-01-15T07:53:21.799Z,19.60
2018-01-15T07:55:50.146Z,17.90
2018-01-15T07:58:18.491Z,20.93
2018-01-15T08:00:46.831Z,20.77
2018-01-15T08:03:15.349Z,19.33
2018-01-15T08:05:43.684Z,17.97
2018-01-15T08:08:12.787Z,18.03
2018-01-15T08:10:41.175Z,17.57
2018-01-15T08:13:09.577Z,18.50
2018-01-15T08:15:37.917Z,19.53
2018-01-15T08:18:06.254Z,21.23
2018-01-15T08:20:34.916Z,19.10
2018-01-15T08:23:03.269Z,19.53
2018-01-15T08:25:31.620Z,19.90
2018-01-15T08:28:00.090Z,18.03
2018-01-15T08:30:28.400Z,19.47
2018-01-15T08:32:56.742Z,21.27
2018-01-15T08:35:25.083Z,20.13
2018-01-15T08:37:53.428Z,21.60
2018-01-15T08:40:22.542Z,19.63
2018-01-15T08:42:51.655Z,20.83
2018-01-15T08:45:20.133Z,20.00
2018-01-15T08:47:48.481Z,19.57
2018-01-15T08:50:16.822Z,22.47
2018-01-15T08:52:45.162Z,20.50
2018-01-15T08:55:13.525Z,21.97
2018-01-15T08:57:42.631Z,21.53
2018-01-15T09:00:11.751Z,25.60
2018-01-15T09:02:40.096Z,21.90
2018-01-15T09:05:09.225Z,23.40
2018-01-15T09:07:37.572Z,22.00
2018-01-15T09:10:05.947Z,22.60
2018-01-15T09:12:35.089Z,21.47
2018-01-15T09:15:03.503Z,22.50
2018-01-15T09:17:31.769Z,21.37
2018-01-15T09:20:00.221Z,20.83
2018-01-15T09:22:28.551Z,23.03
2018-01-15T09:24:57.667Z,20.90
2018-01-15T09:27:26.010Z,24.57
2018-01-15T09:29:54.385Z,21.60
2018-01-15T09:32:22.735Z,22.90
2018-01-15T09:34:51.115Z,23.80
2018-01-15T09:37:19.552Z,18.97
2018-01-15T09:39:47.896Z,23.07
2018-01-15T09:42:16.342Z,21.63
2018-01-15T09:44:44.677Z,23.23
2018-01-15T09:47:13.810Z,20.70
2018-01-15T09:49:42.200Z,23.57
2018-01-15T09:52:10.540Z,19.07
2018-01-15T09:54:38.896Z,22.53
2018-01-15T09:57:07.348Z,20.73
2018-01-15T09:59:35.712Z,20.27
2018-01-15T10:02:04.104Z,20.93
2018-01-15T10:04:32.583Z,24.17
2018-01-15T10:07:00.906Z,22.70
2018-01-15T10:09:29.252Z,22.33
2018-01-15T10:11:57.785Z,22.07
2018-01-15T10:14:26.094Z,24.43
2018-01-15T10:16:54.457Z,18.53
2018-01-15T10:19:22.795Z,20.20
2018-01-15T10:21:51.317Z,22.07
2018-01-15T10:24:19.660Z,20.93
2018-01-15T10:26:48.299Z,23.30
2018-01-15T10:29:16.622Z,22.33
2018-01-15T10:31:44.958Z,20.70
2018-01-15T10:34:13.309Z,22.20
2018-01-15T10:36:41.640Z,20.10
2018-01-15T10:39:09.981Z,24.93
2018-01-15T10:41:38.324Z,21.50
2018-01-15T10:44:06.746Z,25.63
2018-01-15T10:46:35.108Z,21.13
2018-01-15T10:49:04.361Z,27.07
2018-01-15T10:51:32.791Z,22.13
2018-01-15T10:54:01.136Z,21.33
2018-01-15T10:56:29.506Z,22.37
2018-01-15T10:58:57.905Z,25.63
2018-01-15T11:01:27.032Z,22.53
2018-01-15T11:03:55.376Z,22.63
2018-01-15T11:06:23.790Z,21.70
2018-01-15T11:08:52.134Z,25.30
2018-01-15T11:11:20.548Z,23.97
2018-01-15T11:13:48.904Z,23.43
2018-01-15T11:16:18.013Z,23.83
2018-01-15T11:18:46.347Z,21.77
2018-01-15T11:21:14.689Z,26.20
2018-01-15T11:23:43.045Z,28.00
2018-01-15T11:26:11.415Z,22.90
2018-01-15T11:28:39.728Z,24.20
2018-01-15T11:31:08.089Z,22.60
2018-01-15T11:33:36.439Z,25.50
2018-01-15T11:36:04.915Z,25.43
2018-01-15T11:38:33.267Z,24.33
2018-01-15T11:41:01.619Z,25.40
2018-01-15T11:43:29.963Z,25.47
2018-01-15T11:45:59.064Z,25.87
2018-01-15T11:48:28.295Z,27.03
2018-01-15T11:50:56.627Z,23.73
2018-01-15T11:53:24.976Z,26.07
2018-01-15T11:55:53.323Z,26.07
2018-01-15T11:58:21.669Z,21.60
2018-01-15T12:00:50.789Z,24.03
2018-01-15T12:03:19.119Z,23.27
2018-01-15T12:05:47.496Z,24.30
2018-01-15T12:08:15.834Z,22.87
2018-01-15T12:10:44.379Z,24.97
2018-01-15T12:13:12.798Z,24.03
2018-01-15T12:15:41.135Z,25.37
2018-01-15T12:18:09.490Z,23.20
2018-01-15T12:20:37.846Z,23.40
2018-01-15T12:23:06.197Z,24.43
2018-01-15T12:25:34.546Z,23.57
2018-01-15T12:28:03.069Z,24.00
2018-01-15T12:30:31.398Z,25.63
2018-01-15T12:32:59.750Z,19.27
2018-01-15T12:35:28.324Z,21.67
2018-01-15T12:37:56.705Z,21.77
2018-01-15T12:40:25.080Z,22.73
2018-01-15T12:42:53.428Z,20.57
2018-01-15T12:45:22.699Z,22.33
2018-01-15T12:47:51.005Z,21.70
2018-01-15T12:50:20.133Z,20.27
2018-01-15T12:52:48.530Z,21.80
2018-01-15T12:55:16.920Z,24.07
2018-01-15T12:57:45.256Z,21.37
2018-01-15T13:00:13.594Z,25.77
2018-01-15T13:02:42.026Z,24.93
2018-01-15T13:05:10.370Z,24.67
2018-01-15T13:07:51.312Z,26.33
2018-01-15T13:10:19.831Z,21.07
2018-01-15T13:12:48.157Z,22.47
2018-01-15T13:15:16.620Z,23.30
2018-01-15T13:17:45.014Z,22.77
2018-01-15T13:20:13.344Z,19.97
2018-01-15T13:22:42.492Z,19.80
2018-01-15T13:25:10.828Z,24.17
2018-01-15T13:27:39.199Z,23.67
2018-01-15T13:30:07.711Z,22.20
2018-01-15T13:32:36.944Z,21.23
2018-01-15T13:35:05.383Z,24.80
2018-01-15T13:37:33.822Z,21.07
2018-01-15T13:40:02.280Z,22.80
2018-01-15T13:42:30.625Z,22.27
2018-01-15T13:44:58.990Z,24.03
2018-01-15T13:47:28.097Z,22.23
2018-01-15T13:49:56.830Z,23.10
2018-01-15T13:52:25.143Z,21.50
2018-01-15T13:54:54.289Z,21.50
2018-01-15T13:57:22.638Z,21.13
2018-01-15T13:59:50.988Z,21.67
2018-01-15T14:02:19.345Z,22.13
2018-01-15T14:04:47.796Z,21.93
2018-01-15T14:07:16.201Z,20.37
2018-01-15T14:09:44.561Z,23.40
2018-01-15T14:12:13.315Z,23.23
2018-01-15T14:14:42.422Z,21.17
2018-01-15T14:17:10.850Z,22.27
2018-01-15T14:19:39.188Z,19.83
2018-01-15T14:22:07.577Z,24.20
2018-01-15T14:24:36.136Z,23.57
2018-01-15T14:27:04.528Z,22.13
2018-01-15T14:29:32.868Z,22.10
2018-01-15T14:32:01.212Z,24.27
2018-01-15T14:34:29.671Z,22.77
2018-01-15T14:36:58.048Z,33.93
2018-01-15T14:39:26.389Z,23.13
2018-01-15T14:41:54.925Z,21.50
2018-01-15T14:44:23.243Z,23.37
2018-01-15T14:46:51.591Z,21.47
2018-01-15T14:49:19.931Z,22.90
2018-01-15T14:51:48.285Z,21.53
2018-01-15T14:54:16.634Z,23.53
2018-01-15T14:56:44.978Z,20.70
2018-01-15T14:59:13.355Z,23.37
2018-01-15T15:01:41.697Z,22.03
2018-01-15T15:04:10.608Z,22.57
2018-01-15T15:06:39.807Z,22.97
2018-01-15T15:09:08.976Z,22.63
2018-01-15T15:11:37.326Z,25.03
2018-01-15T15:14:05.697Z,21.97
2018-01-15T15:16:34.790Z,22.27
2018-01-15T15:19:03.200Z,21.77
2018-01-15T15:21:31.610Z,23.13
2018-01-15T15:24:00.741Z,22.43
2018-01-15T15:26:29.092Z,21.17
2018-01-15T15:28:58.228Z,20.70
2018-01-15T15:31:26.591Z,21.93
2018-01-15T15:33:54.953Z,22.27
2018-01-15T15:36:23.308Z,21.77
2018-01-15T15:38:51.632Z,24.43
2018-01-15T15:41:19.992Z,23.23
2018-01-15T15:43:49.095Z,21.27
2018-01-15T15:46:17.428Z,20.20
2018-01-15T15:48:45.782Z,23.53
2018-01-15T15:51:14.161Z,20.37
2018-01-15T15:53:42.520Z,21.87
2018-01-15T15:56:10.909Z,21.33
2018-01-15T15:58:39.259Z,20.47
2018-01-15T16:01:08.401Z,21.57
2018-01-15T16:03:36.856Z,18.27
2018-01-15T16:06:05.200Z,23.53
2018-01-15T16:08:34.324Z,18.73
2018-01-15T16:11:02.673Z,20.20
2018-01-15T16:13:31.818Z,21.40
2018-01-15T16:16:00.176Z,18.27
2018-01-15T16:18:28.514Z,21.70
2018-01-15T16:20:56.860Z,19.37
2018-01-15T16:23:25.204Z,19.90
2018-01-15T16:25:53.570Z,22.00
2018-01-15T16:28:22.683Z,19.13
2018-01-15T16:30:51.122Z,17.80
2018-01-15T16:33:19.559Z,20.60
2018-01-15T16:35:47.896Z,19.80
2018-01-15T16:38:16.316Z,17.93
2018-01-15T16:40:44.715Z,18.27
2018-01-15T16:43:13.805Z,19.13
2018-01-15T16:45:42.181Z,17.00
2018-01-15T16:48:10.581Z,19.43
2018-01-15T16:50:38.949Z,16.97
2018-01-15T16:53:07.282Z,18.70
2018-01-15T16:55:36.564Z,20.93
2018-01-15T16:58:05.025Z,16.60
2018-01-15T17:00:33.431Z,17.73
2018-01-15T17:03:01.860Z,17.53
2018-01-15T17:05:30.223Z,18.37
2018-01-15T17:07:58.589Z,17.27
2018-01-15T17:10:26.931Z,19.13
2018-01-15T17:12:55.281Z,19.73
2018-01-15T17:15:23.618Z,18.23
2018-01-15T17:17:52.760Z,19.50
2018-01-15T17:20:21.100Z,17.97
2018-01-15T17:22:49.456Z,17.67
2018-01-15T17:25:17.820Z,17.40
2018-01-15T17:27:46.170Z,17.40
2018-01-15T17:30:14.545Z,18.17
2018-01-15T17:32:42.889Z,21.90
2018-01-15T17:35:12.147Z,18.37
2018-01-15T17:37:40.485Z,17.73
2018-01-15T17:40:08.912Z,17.30
2018-01-15T17:42:37.279Z,18.63
2018-01-15T17:45:05.640Z,19.13
2018-01-15T17:47:34.113Z,15.60
2018-01-15T17:50:02.508Z,19.90
2018-01-15T17:52:30.893Z,17.70
2018-01-15T17:54:59.272Z,17.53
2018-01-15T17:57:27.607Z,17.27
2018-01-15T17:59:55.991Z,17.80
2018-01-15T18:02:24.339Z,18.20
2018-01-15T18:04:52.808Z,17.23
2018-01-15T18:07:21.161Z,18.70
2018-01-15T18:09:49.690Z,15.97
2018-01-15T18:12:18.135Z,17.73
2018-01-15T18:14:46.479Z,18.97
2018-01-15T18:17:14.903Z,16.13
2018-01-15T18:19:43.260Z,15.83
2018-01-15T18:22:11.604Z,18.07
2018-01-15T18:24:39.996Z,14.97
2018-01-15T18:27:08.442Z,17.77
2018-01-15T18:29:36.872Z,16.97
2018-01-15T18:32:05.208Z,15.50
2018-01-15T18:34:34.326Z,16.27
2018-01-15T18:37:02.659Z,16.57
2018-01-15T18:39:30.991Z,14.33
2018-01-15T18:41:59.359Z,14.33
2018-01-15T18:44:27.722Z,15.97
2018-01-15T18:46:56.833Z,15.17
2018-01-15T18:49:25.180Z,12.73
2018-01-15T18:51:53.526Z,11.63
2018-01-15T18:54:21.863Z,14.40
2018-01-15T18:56:51.102Z,12.87
2018-01-15T18:59:19.476Z,13.03
2018-01-15T19:01:48.136Z,11.83
2018-01-15T19:04:17.224Z,14.93
2018-01-15T19:06:46.327Z,14.23
2018-01-15T19:09:14.696Z,15.50
2018-01-15T19:11:43.810Z,12.33
2018-01-15T19:14:12.201Z,11.70
2018-01-15T19:16:40.514Z,12.70
2018-01-15T19:19:09.179Z,13.00
2018-01-15T19:21:37.643Z,13.97
2018-01-15T19:24:06.129Z,12.93
2018-01-15T19:26:34.556Z,12.73
2018-01-15T19:29:02.914Z,15.00
2018-01-15T19:31:31.272Z,12.93
2018-01-15T19:34:00.266Z,14.10
2018-01-15T19:36:37.201Z,12.43
2018-01-15T19:39:09.986Z,11.67
2018-01-15T19:41:41.041Z,14.53
2018-01-15T19:44:15.211Z,14.23
2018-01-15T19:46:49.269Z,13.10
2018-01-15T19:49:24.145Z,13.83
2018-01-15T19:51:58.461Z,12.17
2018-01-15T19:54:32.636Z,14.00
2018-01-15T19:57:07.748Z,14.10
2018-01-15T19:59:44.742Z,13.83
2018-01-15T20:02:19.026Z,14.67
2018-01-15T20:04:53.275Z,15.43
2018-01-15T20:07:28.058Z,14.17
2018-01-15T20:10:02.222Z,14.80
2018-01-15T20:12:30.627Z,14.17
2018-01-15T20:14:59.732Z,18.73
2018-01-15T20:17:28.076Z,16.67
2018-01-15T20:19:56.465Z,15.63
2018-01-15T20:22:25.561Z,15.60
2018-01-15T20:24:54.840Z,17.20
2018-01-15T20:27:23.198Z,15.80
2018-01-15T20:29:51.538Z,16.07
2018-01-15T20:32:19.894Z,16.63
2018-01-15T20:34:49.014Z,16.90
2018-01-15T20:37:17.351Z,16.57
2018-01-15T20:39:45.786Z,18.93
2018-01-15T20:42:14.110Z,14.80
2018-01-15T20:44:42.456Z,14.37
2018-01-15T20:47:10.796Z,18.37
2018-01-15T20:49:39.158Z,16.70
2018-01-15T20:52:08.279Z,15.73
2018-01-15T20:54:36.644Z,16.27
2018-01-15T20:57:04.976Z,15.80
2018-01-15T20:59:33.320Z,15.90
2018-01-15T21:02:01.673Z,18.40
2018-01-15T21:04:30.772Z,17.23
2018-01-15T21:06:59.941Z,20.43
2018-01-15T21:09:28.321Z,16.40
2018-01-15T21:11:56.688Z,16.07
2018-01-15T21:14:25.015Z,15.40
2018-01-15T21:16:53.370Z,14.57
2018-01-15T21:19:21.920Z,14.83
2018-01-15T21:21:50.263Z,14.87
2018-01-15T21:24:18.607Z,13.17
2018-01-15T21:26:46.938Z,11.90
2018-01-15T21:29:15.296Z,13.63
2018-01-15T21:31:43.635Z,11.63
2018-01-15T21:34:11.977Z,8.90
2018-01-15T21:36:40.343Z,9.53
2018-01-15T21:39:08.675Z,11.77
2018-01-15T21:41:37.051Z,9.37
2018-01-15T21:44:05.375Z,8.93
2018-01-15T21:46:33.789Z,8.30
2018-01-15T21:49:02.127Z,7.47
2018-01-15T21:51:30.455Z,9.30
2018-01-15T21:53:58.954Z,7.80
2018-01-15T21:56:27.279Z,5.93
2018-01-15T21:58:55.716Z,6.60
2018-01-15T22:01:24.101Z,7.73
2018-01-15T22:03:52.441Z,5.87
2018-01-15T22:06:20.767Z,4.50
2018-01-15T22:08:49.871Z,4.30
2018-01-15T22:11:18.203Z,4.00
2018-01-15T22:13:46.538Z,3.97
2018-01-15T22:16:14.876Z,5.30
2018-01-15T22:18:43.199Z,4.00
2018-01-15T22:21:11.570Z,4.17
2018-01-15T22:23:40.548Z,4.70
2018-01-15T22:26:08.851Z,3.00
2018-01-15T22:28:37.195Z,3.37
2018-01-15T22:31:06.313Z,3.53
2018-01-15T22:33:34.715Z,3.23
2018-01-15T22:36:03.034Z,5.57
2018-01-15T22:38:31.375Z,4.20
2018-01-15T22:40:59.764Z,4.10
2018-01-15T22:43:28.082Z,3.97
2018-01-15T22:45:57.429Z,4.33
2018-01-15T22:48:25.752Z,3.50
2018-01-15T22:50:54.110Z,4.13
2018-01-15T22:53:22.465Z,4.63
2018-01-15T22:55:50.811Z,6.13
2018-01-15T22:58:19.927Z,3.30
2018-01-15T23:00:48.260Z,3.37
2018-01-15T23:03:16.592Z,4.07
2018-01-15T23:08:20.371Z,3.40
2018-01-15T23:10:48.682Z,4.27
2018-01-15T23:13:17.037Z,3.03
2018-01-15T23:15:46.152Z,3.50
2018-01-15T23:18:14.480Z,4.37
2018-01-15T23:20:42.820Z,3.20
2018-01-15T23:23:11.157Z,3.60
2018-01-15T23:25:39.495Z,2.90
2018-01-15T23:28:07.819Z,3.53
2018-01-15T23:30:37.061Z,3.30
2018-01-15T23:33:05.396Z,3.07
2018-01-15T23:35:33.718Z,3.13
2018-01-15T23:38:02.072Z,3.27
2018-01-15T23:40:31.143Z,2.17
2018-01-15T23:42:59.556Z,2.10
2018-01-15T23:45:27.887Z,2.57
2018-01-15T23:47:56.239Z,2.70
2018-01-15T23:50:24.616Z,2.50
2018-01-15T23:52:53.156Z,2.23
2018-01-15T23:55:21.479Z,1.87
2018-01-15T23:57:49.814Z,3.40
